sensor_id;sensor_type;location;lat;lon;timestamp;pressure;altitude;pressure_sealevel;temperature;humidity
4469;BME280;2247;42.666;23.292;2023-02-02T00:01:16;94420.97;;;9.05;39.79
4469;BME280;2247;42.666;23.292;2023-02-02T00:03:44;94424.13;;;9.07;39.73
4469;BME280;2247;42.666;23.292;2023-02-02T00:06:10;94433.28;;;9.00;39.95
4469;BME280;2247;42.666;23.292;2023-02-02T00:08:39;94427.25;;;8.99;40.05
4469;BME280;2247;42.666;23.292;2023-02-02T00:11:06;94433.81;;;8.92;40.22
4469;BME280;2247;42.666;23.292;2023-02-02T00:13:33;94417.81;;;9.14;39.74
4469;BME280;2247;42.666;23.292;2023-02-02T00:16:32;94414.16;;;9.30;39.24
4469;BME280;2247;42.666;23.292;2023-02-02T00:19:05;94417.03;;;9.13;39.67
4469;BME280;2247;42.666;23.292;2023-02-02T00:21:32;94419.16;;;9.11;39.49
4469;BME280;2247;42.666;23.292;2023-02-02T00:24:01;94419.16;;;9.21;39.53
4469;BME280;2247;42.666;23.292;2023-02-02T00:26:28;94421.53;;;9.23;39.55
4469;BME280;2247;42.666;23.292;2023-02-02T00:28:56;94422.84;;;9.30;39.79
4469;BME280;2247;42.666;23.292;2023-02-02T00:31:23;94426.19;;;9.00;40.35
4469;BME280;2247;42.666;23.292;2023-02-02T00:33:50;94415.41;;;8.87;40.52
4469;BME280;2247;42.666;23.292;2023-02-02T00:36:18;94429.84;;;8.84;41.01
4469;BME280;2247;42.666;23.292;2023-02-02T00:38:47;94435.84;;;8.69;41.10
4469;BME280;2247;42.666;23.292;2023-02-02T00:41:16;94433.47;;;8.73;41.18
4469;BME280;2247;42.666;23.292;2023-02-02T00:43:43;94437.44;;;8.76;41.32
4469;BME280;2247;42.666;23.292;2023-02-02T00:46:31;94428.78;;;8.80;41.10
4469;BME280;2247;42.666;23.292;2023-02-02T00:48:57;94443.09;;;8.47;42.18
4469;BME280;2247;42.666;23.292;2023-02-02T00:51:24;94435.25;;;8.52;42.29
4469;BME280;2247;42.666;23.292;2023-02-02T00:53:53;94443.91;;;8.48;42.52
4469;BME280;2247;42.666;23.292;2023-02-02T00:56:23;94437.91;;;8.57;42.74
4469;BME280;2247;42.666;23.292;2023-02-02T00:58:50;94432.66;;;8.62;43.33
4469;BME280;2247;42.666;23.292;2023-02-02T01:01:17;94427.09;;;8.49;43.86
4469;BME280;2247;42.666;23.292;2023-02-02T01:03:45;94423.91;;;8.37;44.30
4469;BME280;2247;42.666;23.292;2023-02-02T01:06:12;94409.69;;;8.33;44.45
4469;BME280;2247;42.666;23.292;2023-02-02T01:08:39;94423.03;;;8.26;44.26
4469;BME280;2247;42.666;23.292;2023-02-02T01:11:07;94418.81;;;8.25;44.44
4469;BME280;2247;42.666;23.292;2023-02-02T01:13:36;94406.81;;;8.34;44.30
4469;BME280;2247;42.666;23.292;2023-02-02T01:16:05;94406.66;;;8.61;43.81
4469;BME280;2247;42.666;23.292;2023-02-02T01:18:32;94400.41;;;8.82;43.44
4469;BME280;2247;42.666;23.292;2023-02-02T01:21:01;94407.84;;;9.11;42.45
4469;BME280;2247;42.666;23.292;2023-02-02T01:23:29;94399.97;;;9.05;42.21
4469;BME280;2247;42.666;23.292;2023-02-02T01:26:00;94398.38;;;9.20;41.67
4469;BME280;2247;42.666;23.292;2023-02-02T01:28:29;94380.47;;;9.06;41.85
4469;BME280;2247;42.666;23.292;2023-02-02T01:30:57;94383.66;;;9.24;41.73
4469;BME280;2247;42.666;23.292;2023-02-02T01:33:24;94393.66;;;9.12;42.08
4469;BME280;2247;42.666;23.292;2023-02-02T01:35:53;94395.72;;;8.99;42.46
4469;BME280;2247;42.666;23.292;2023-02-02T01:38:22;94398.59;;;8.83;42.86
4469;BME280;2247;42.666;23.292;2023-02-02T01:40:51;94395.97;;;8.88;42.72
4469;BME280;2247;42.666;23.292;2023-02-02T01:43:22;94393.53;;;8.66;43.22
4469;BME280;2247;42.666;23.292;2023-02-02T01:45:50;94395.91;;;8.57;43.82
4469;BME280;2247;42.666;23.292;2023-02-02T01:48:21;94384.91;;;8.76;43.40
4469;BME280;2247;42.666;23.292;2023-02-02T01:50:51;94378.09;;;8.85;43.59
4469;BME280;2247;42.666;23.292;2023-02-02T01:53:19;94360.47;;;8.70;43.48
4469;BME280;2247;42.666;23.292;2023-02-02T01:55:48;94381.19;;;8.72;43.90
4469;BME280;2247;42.666;23.292;2023-02-02T01:58:18;94373.00;;;8.48;44.60
4469;BME280;2247;42.666;23.292;2023-02-02T02:00:46;94377.53;;;8.62;44.27
4469;BME280;2247;42.666;23.292;2023-02-02T02:03:16;94364.88;;;8.54;44.51
4469;BME280;2247;42.666;23.292;2023-02-02T02:05:49;94360.38;;;8.40;44.75
4469;BME280;2247;42.666;23.292;2023-02-02T02:08:19;94365.00;;;8.22;45.09
4469;BME280;2247;42.666;23.292;2023-02-02T02:10:46;94369.63;;;8.05;45.55
4469;BME280;2247;42.666;23.292;2023-02-02T02:13:15;94365.41;;;7.99;46.06
4469;BME280;2247;42.666;23.292;2023-02-02T02:15:52;94342.84;;;8.03;45.66
4469;BME280;2247;42.666;23.292;2023-02-02T02:18:46;94369.63;;;8.05;46.03
4469;BME280;2247;42.666;23.292;2023-02-02T02:21:42;94377.94;;;7.87;46.91
4469;BME280;2247;42.666;23.292;2023-02-02T02:25:00;94368.88;;;7.63;47.75
4469;BME280;2247;42.666;23.292;2023-02-02T02:28:13;94368.31;;;7.61;48.05
4469;BME280;2247;42.666;23.292;2023-02-02T02:33:45;94368.03;;;7.94;46.81
4469;BME280;2247;42.666;23.292;2023-02-02T02:36:17;94357.28;;;8.01;46.38
4469;BME280;2247;42.666;23.292;2023-02-02T02:38:50;94371.72;;;8.03;46.49
4469;BME280;2247;42.666;23.292;2023-02-02T02:41:22;94370.59;;;7.89;46.92
4469;BME280;2247;42.666;23.292;2023-02-02T02:43:51;94374.06;;;7.95;46.73
4469;BME280;2247;42.666;23.292;2023-02-02T02:46:22;94377.16;;;7.86;46.75
4469;BME280;2247;42.666;23.292;2023-02-02T02:48:51;94377.31;;;7.75;47.05
4469;BME280;2247;42.666;23.292;2023-02-02T02:51:49;94372.03;;;7.65;46.92
4469;BME280;2247;42.666;23.292;2023-02-02T02:54:18;94369.16;;;7.66;46.86
4469;BME280;2247;42.666;23.292;2023-02-02T02:56:59;94367.34;;;7.72;46.78
4469;BME280;2247;42.666;23.292;2023-02-02T02:59:34;94371.44;;;7.53;47.10
4469;BME280;2247;42.666;23.292;2023-02-02T03:02:11;94370.69;;;7.62;46.60
4469;BME280;2247;42.666;23.292;2023-02-02T03:04:53;94369.56;;;7.90;45.53
4469;BME280;2247;42.666;23.292;2023-02-02T03:07:25;94363.16;;;7.71;46.21
4469;BME280;2247;42.666;23.292;2023-02-02T03:09:54;94346.06;;;7.63;45.98
4469;BME280;2247;42.666;23.292;2023-02-02T03:12:24;94351.53;;;7.57;46.44
4469;BME280;2247;42.666;23.292;2023-02-02T03:14:51;94352.28;;;7.52;46.49
4469;BME280;2247;42.666;23.292;2023-02-02T03:17:18;94363.56;;;7.53;46.83
4469;BME280;2247;42.666;23.292;2023-02-02T03:19:48;94369.69;;;7.68;45.85
4469;BME280;2247;42.666;23.292;2023-02-02T03:22:14;94368.94;;;7.73;46.37
4469;BME280;2247;42.666;23.292;2023-02-02T03:24:41;94358.22;;;7.79;46.59
4469;BME280;2247;42.666;23.292;2023-02-02T03:27:08;94355.41;;;7.96;45.92
4469;BME280;2247;42.666;23.292;2023-02-02T03:29:35;94340.19;;;7.88;46.33
4469;BME280;2247;42.666;23.292;2023-02-02T03:32:02;94354.09;;;7.94;45.36
4469;BME280;2247;42.666;23.292;2023-02-02T03:34:29;94352.13;;;8.16;44.37
4469;BME280;2247;42.666;23.292;2023-02-02T03:36:58;94353.41;;;8.13;43.66
4469;BME280;2247;42.666;23.292;2023-02-02T03:39:25;94334.97;;;7.93;44.62
4469;BME280;2247;42.666;23.292;2023-02-02T03:41:51;94354.28;;;7.82;45.82
4469;BME280;2247;42.666;23.292;2023-02-02T03:44:18;94333.81;;;7.74;44.97
4469;BME280;2247;42.666;23.292;2023-02-02T03:46:45;94354.16;;;7.62;45.44
4469;BME280;2247;42.666;23.292;2023-02-02T03:49:12;94348.34;;;7.55;46.13
4469;BME280;2247;42.666;23.292;2023-02-02T03:51:40;94361.00;;;7.63;46.04
4469;BME280;2247;42.666;23.292;2023-02-02T03:54:10;94348.34;;;7.97;44.54
4469;BME280;2247;42.666;23.292;2023-02-02T03:56:37;94354.75;;;8.21;43.79
4469;BME280;2247;42.666;23.292;2023-02-02T03:59:04;94360.00;;;8.16;43.01
4469;BME280;2247;42.666;23.292;2023-02-02T04:01:32;94362.31;;;8.07;43.45
4469;BME280;2247;42.666;23.292;2023-02-02T04:03:58;94363.22;;;7.81;44.44
4469;BME280;2247;42.666;23.292;2023-02-02T04:06:25;94359.88;;;7.96;43.65
4469;BME280;2247;42.666;23.292;2023-02-02T04:08:52;94360.66;;;7.96;43.28
4469;BME280;2247;42.666;23.292;2023-02-02T04:11:21;94372.94;;;7.80;44.12
4469;BME280;2247;42.666;23.292;2023-02-02T04:13:48;94367.13;;;7.73;44.15
4469;BME280;2247;42.666;23.292;2023-02-02T04:16:15;94378.88;;;7.66;44.46
4469;BME280;2247;42.666;23.292;2023-02-02T04:18:41;94382.75;;;8.00;43.64
4469;BME280;2247;42.666;23.292;2023-02-02T04:21:09;94376.97;;;8.03;43.34
4469;BME280;2247;42.666;23.292;2023-02-02T04:23:36;94389.94;;;7.78;43.58
4469;BME280;2247;42.666;23.292;2023-02-02T04:26:03;94389.19;;;7.82;44.38
4469;BME280;2247;42.666;23.292;2023-02-02T04:28:32;94385.72;;;7.72;44.78
4469;BME280;2247;42.666;23.292;2023-02-02T04:31:00;94374.31;;;7.56;45.00
4469;BME280;2247;42.666;23.292;2023-02-02T04:33:33;94375.94;;;7.62;45.03
4469;BME280;2247;42.666;23.292;2023-02-02T04:36:01;94379.94;;;7.75;44.67
4469;BME280;2247;42.666;23.292;2023-02-02T04:38:33;94376.97;;;8.03;43.71
4469;BME280;2247;42.666;23.292;2023-02-02T04:41:06;94370.75;;;8.14;43.14
4469;BME280;2247;42.666;23.292;2023-02-02T04:43:37;94390.72;;;8.25;42.97
4469;BME280;2247;42.666;23.292;2023-02-02T04:46:05;94390.28;;;8.34;42.73
4469;BME280;2247;42.666;23.292;2023-02-02T04:48:32;94387.97;;;8.47;41.83
4469;BME280;2247;42.666;23.292;2023-02-02T04:51:01;94390.06;;;8.45;42.14
4469;BME280;2247;42.666;23.292;2023-02-02T04:53:28;94375.03;;;8.30;42.55
4469;BME280;2247;42.666;23.292;2023-02-02T04:56:04;94388.66;;;8.27;42.72
4469;BME280;2247;42.666;23.292;2023-02-02T04:58:31;94377.09;;;8.28;42.64
4469;BME280;2247;42.666;23.292;2023-02-02T05:01:09;94390.47;;;8.22;43.01
4469;BME280;2247;42.666;23.292;2023-02-02T05:03:56;94403.94;;;7.94;43.78
4469;BME280;2247;42.666;23.292;2023-02-02T05:11:51;94389.56;;;8.01;43.70
4469;BME280;2247;42.666;23.292;2023-02-02T05:19:44;94374.66;;;8.12;43.22
4469;BME280;2247;42.666;23.292;2023-02-02T05:22:30;94395.41;;;8.18;42.77
4469;BME280;2247;42.666;23.292;2023-02-02T05:25:05;94340.22;;;8.03;41.83
4469;BME280;2247;42.666;23.292;2023-02-02T05:27:38;94379.13;;;8.11;41.84
4469;BME280;2247;42.666;23.292;2023-02-02T05:30:10;94348.63;;;8.00;42.28
4469;BME280;2247;42.666;23.292;2023-02-02T05:45:47;94375.69;;;7.64;42.57
4469;BME280;2247;42.666;23.292;2023-02-02T05:48:20;94369.69;;;7.68;42.47
4469;BME280;2247;42.666;23.292;2023-02-02T05:51:07;94371.50;;;7.63;42.97
4469;BME280;2247;42.666;23.292;2023-02-02T05:53:41;94373.72;;;7.81;42.62
4469;BME280;2247;42.666;23.292;2023-02-02T05:56:10;94419.63;;;7.88;42.53
4469;BME280;2247;42.666;23.292;2023-02-02T05:58:38;94394.78;;;7.96;42.20
4469;BME280;2247;42.666;23.292;2023-02-02T06:01:07;94392.31;;;8.26;40.53
4469;BME280;2247;42.666;23.292;2023-02-02T06:03:35;94362.09;;;8.24;40.55
4469;BME280;2247;42.666;23.292;2023-02-02T06:06:04;94384.84;;;8.55;39.85
4469;BME280;2247;42.666;23.292;2023-02-02T06:08:31;94387.22;;;8.57;39.69
4469;BME280;2247;42.666;23.292;2023-02-02T06:10:58;94410.94;;;8.82;41.25
4469;BME280;2247;42.666;23.292;2023-02-02T06:13:25;94394.09;;;8.78;39.89
4469;BME280;2247;42.666;23.292;2023-02-02T06:15:51;94394.03;;;8.53;39.95
4469;BME280;2247;42.666;23.292;2023-02-02T06:18:20;94399.59;;;8.66;40.41
4469;BME280;2247;42.666;23.292;2023-02-02T06:23:22;94406.19;;;8.79;40.04
4469;BME280;2247;42.666;23.292;2023-02-02T06:25:49;94404.59;;;8.78;39.64
4469;BME280;2247;42.666;23.292;2023-02-02T06:28:16;94415.00;;;8.48;40.48
4469;BME280;2247;42.666;23.292;2023-02-02T06:30:44;94419.47;;;8.42;40.75
4469;BME280;2247;42.666;23.292;2023-02-02T06:33:11;94406.78;;;8.29;40.88
4469;BME280;2247;42.666;23.292;2023-02-02T06:35:41;94423.34;;;8.35;40.63
4469;BME280;2247;42.666;23.292;2023-02-02T06:38:09;94410.31;;;8.55;40.27
4469;BME280;2247;42.666;23.292;2023-02-02T06:40:36;94425.84;;;8.61;40.14
4469;BME280;2247;42.666;23.292;2023-02-02T06:43:04;94438.34;;;8.39;41.02
4469;BME280;2247;42.666;23.292;2023-02-02T06:45:33;94429.81;;;8.69;40.06
4469;BME280;2247;42.666;23.292;2023-02-02T06:48:05;94428.78;;;8.75;40.09
4469;BME280;2247;42.666;23.292;2023-02-02T06:53:12;94404.22;;;8.44;40.97
4469;BME280;2247;42.666;23.292;2023-02-02T06:55:39;94423.69;;;8.53;40.54
4469;BME280;2247;42.666;23.292;2023-02-02T06:58:06;94434.66;;;8.35;40.90
4469;BME280;2247;42.666;23.292;2023-02-02T07:00:33;94441.63;;;8.19;41.51
4469;BME280;2247;42.666;23.292;2023-02-02T07:03:02;94444.38;;;8.40;41.04
4469;BME280;2247;42.666;23.292;2023-02-02T07:05:30;94456.72;;;8.44;41.60
4469;BME280;2247;42.666;23.292;2023-02-02T07:07:57;94447.56;;;8.52;41.32
4469;BME280;2247;42.666;23.292;2023-02-02T07:10:25;94449.53;;;8.77;40.72
4469;BME280;2247;42.666;23.292;2023-02-02T07:12:53;94446.69;;;8.88;40.83
4469;BME280;2247;42.666;23.292;2023-02-02T07:15:21;94445.69;;;9.15;39.89
4469;BME280;2247;42.666;23.292;2023-02-02T07:17:49;94440.97;;;9.22;39.82
4469;BME280;2247;42.666;23.292;2023-02-02T07:20:17;94442.56;;;9.23;39.67
4469;BME280;2247;42.666;23.292;2023-02-02T07:22:44;94455.94;;;9.16;40.13
4469;BME280;2247;42.666;23.292;2023-02-02T07:25:13;94456.19;;;9.20;39.94
4469;BME280;2247;42.666;23.292;2023-02-02T07:27:41;94461.50;;;9.25;39.87
4469;BME280;2247;42.666;23.292;2023-02-02T07:32:47;94452.91;;;8.72;40.99
4469;BME280;2247;42.666;23.292;2023-02-02T07:45:41;94449.97;;;9.46;39.26
4469;BME280;2247;42.666;23.292;2023-02-02T07:48:11;94450.19;;;9.34;40.14
4469;BME280;2247;42.666;23.292;2023-02-02T07:56:05;94420.22;;;9.86;38.62
4469;BME280;2247;42.666;23.292;2023-02-02T07:58:33;94426.75;;;10.14;38.76
4469;BME280;2247;42.666;23.292;2023-02-02T08:01:04;94420.97;;;10.17;38.18
4469;BME280;2247;42.666;23.292;2023-02-02T08:03:34;94417.56;;;9.91;38.63
4469;BME280;2247;42.666;23.292;2023-02-02T08:06:08;94412.06;;;9.82;38.61
4469;BME280;2247;42.666;23.292;2023-02-02T08:08:36;94423.66;;;9.71;39.51
4469;BME280;2247;42.666;23.292;2023-02-02T08:11:07;94415.72;;;10.07;42.96
4469;BME280;2247;42.666;23.292;2023-02-02T08:13:34;94404.50;;;10.60;41.73
4469;BME280;2247;42.666;23.292;2023-02-02T08:16:03;94407.50;;;10.98;40.00
4469;BME280;2247;42.666;23.292;2023-02-02T08:18:31;94406.13;;;11.11;42.47
4469;BME280;2247;42.666;23.292;2023-02-02T08:20:58;94398.38;;;11.24;39.59
4469;BME280;2247;42.666;23.292;2023-02-02T08:23:26;94403.44;;;11.16;38.14
4469;BME280;2247;42.666;23.292;2023-02-02T08:25:53;94402.56;;;11.30;38.18
4469;BME280;2247;42.666;23.292;2023-02-02T08:28:21;94395.59;;;11.05;37.72
4469;BME280;2247;42.666;23.292;2023-02-02T08:30:47;94384.34;;;10.90;38.24
4469;BME280;2247;42.666;23.292;2023-02-02T08:33:17;94393.66;;;10.72;38.47
4469;BME280;2247;42.666;23.292;2023-02-02T08:35:44;94369.78;;;10.48;38.89
4469;BME280;2247;42.666;23.292;2023-02-02T08:38:11;94365.09;;;10.35;38.91
4469;BME280;2247;42.666;23.292;2023-02-02T08:40:39;94408.88;;;10.21;39.41
4469;BME280;2247;42.666;23.292;2023-02-02T08:43:06;94394.63;;;10.12;39.75
4469;BME280;2247;42.666;23.292;2023-02-02T08:45:33;94392.81;;;10.17;39.90
4469;BME280;2247;42.666;23.292;2023-02-02T08:48:00;94388.34;;;10.08;40.37
4469;BME280;2247;42.666;23.292;2023-02-02T08:50:29;94383.06;;;10.23;40.14
4469;BME280;2247;42.666;23.292;2023-02-02T08:52:57;94374.34;;;10.27;40.55
4469;BME280;2247;42.666;23.292;2023-02-02T08:55:24;94369.81;;;10.43;40.28
4469;BME280;2247;42.666;23.292;2023-02-02T08:57:51;94393.13;;;10.75;39.30
4469;BME280;2247;42.666;23.292;2023-02-02T09:00:19;94357.56;;;10.68;38.91
4469;BME280;2247;42.666;23.292;2023-02-02T09:02:49;94359.22;;;10.53;39.09
4469;BME280;2247;42.666;23.292;2023-02-02T09:05:16;94369.94;;;10.72;39.67
4469;BME280;2247;42.666;23.292;2023-02-02T09:07:46;94371.09;;;10.56;40.43
4469;BME280;2247;42.666;23.292;2023-02-02T09:10:14;94379.97;;;10.70;40.11
4469;BME280;2247;42.666;23.292;2023-02-02T09:12:42;94376.19;;;10.91;39.33
4469;BME280;2247;42.666;23.292;2023-02-02T09:15:09;94364.91;;;11.20;39.47
4469;BME280;2247;42.666;23.292;2023-02-02T09:17:38;94369.25;;;11.39;39.25
4469;BME280;2247;42.666;23.292;2023-02-02T09:20:05;94361.22;;;11.55;38.93
4469;BME280;2247;42.666;23.292;2023-02-02T09:22:33;94358.13;;;11.42;38.90
4469;BME280;2247;42.666;23.292;2023-02-02T09:25:01;94368.03;;;11.27;39.38
4469;BME280;2247;42.666;23.292;2023-02-02T09:27:28;94379.66;;;11.60;39.51
4469;BME280;2247;42.666;23.292;2023-02-02T09:29:55;94382.22;;;11.65;38.73
4469;BME280;2247;42.666;23.292;2023-02-02T09:32:22;94372.13;;;11.43;39.58
4469;BME280;2247;42.666;23.292;2023-02-02T09:34:49;94361.09;;;10.97;40.77
4469;BME280;2247;42.666;23.292;2023-02-02T09:37:19;94373.09;;;10.74;41.64
4469;BME280;2247;42.666;23.292;2023-02-02T09:39:46;94357.47;;;10.88;41.60
4469;BME280;2247;42.666;23.292;2023-02-02T09:42:41;94370.06;;;10.96;41.80
4469;BME280;2247;42.666;23.292;2023-02-02T09:45:17;94376.00;;;10.73;41.70
4469;BME280;2247;42.666;23.292;2023-02-02T09:47:53;94346.72;;;10.10;42.98
4469;BME280;2247;42.666;23.292;2023-02-02T09:50:46;94358.81;;;10.11;43.49
4469;BME280;2247;42.666;23.292;2023-02-02T09:53:21;94359.78;;;10.45;42.65
4469;BME280;2247;42.666;23.292;2023-02-02T09:55:51;94352.25;;;10.18;43.12
4469;BME280;2247;42.666;23.292;2023-02-02T09:58:24;94350.88;;;10.31;43.24
4469;BME280;2247;42.666;23.292;2023-02-02T10:00:57;94351.69;;;10.37;43.25
4469;BME280;2247;42.666;23.292;2023-02-02T10:03:30;94348.69;;;10.53;43.21
4469;BME280;2247;42.666;23.292;2023-02-02T10:06:04;94346.47;;;10.76;42.52
4469;BME280;2247;42.666;23.292;2023-02-02T10:08:37;94331.06;;;10.98;41.85
4469;BME280;2247;42.666;23.292;2023-02-02T10:14:04;94323.34;;;11.40;40.46
4469;BME280;2247;42.666;23.292;2023-02-02T10:16:36;94327.50;;;11.47;39.82
4469;BME280;2247;42.666;23.292;2023-02-02T10:19:10;94323.25;;;11.51;39.16
4469;BME280;2247;42.666;23.292;2023-02-02T10:21:45;94307.19;;;11.76;38.29
4469;BME280;2247;42.666;23.292;2023-02-02T10:24:17;94320.56;;;11.84;37.64
4469;BME280;2247;42.666;23.292;2023-02-02T10:26:47;94304.91;;;11.93;37.23
4469;BME280;2247;42.666;23.292;2023-02-02T10:29:30;94303.78;;;11.99;38.12
4469;BME280;2247;42.666;23.292;2023-02-02T10:32:05;94303.56;;;11.96;39.87
4469;BME280;2247;42.666;23.292;2023-02-02T10:34:41;94285.69;;;12.11;38.36
4469;BME280;2247;42.666;23.292;2023-02-02T10:37:21;94285.03;;;12.01;37.06
4469;BME280;2247;42.666;23.292;2023-02-02T10:40:04;94268.50;;;12.14;36.74
4469;BME280;2247;42.666;23.292;2023-02-02T10:42:44;94290.22;;;12.30;36.60
4469;BME280;2247;42.666;23.292;2023-02-02T10:45:40;94259.44;;;12.20;36.40
4469;BME280;2247;42.666;23.292;2023-02-02T10:48:13;94252.94;;;12.31;35.92
4469;BME280;2247;42.666;23.292;2023-02-02T10:50:42;94247.94;;;12.30;35.66
4469;BME280;2247;42.666;23.292;2023-02-02T10:53:19;94225.75;;;12.31;36.12
4469;BME280;2247;42.666;23.292;2023-02-02T10:55:54;94219.81;;;12.39;35.76
4469;BME280;2247;42.666;23.292;2023-02-02T10:58:28;94233.97;;;12.29;36.14
4469;BME280;2247;42.666;23.292;2023-02-02T11:00:59;94212.53;;;12.31;35.88
4469;BME280;2247;42.666;23.292;2023-02-02T11:03:30;94213.44;;;12.40;35.23
4469;BME280;2247;42.666;23.292;2023-02-02T11:06:00;94213.03;;;12.33;35.45
4469;BME280;2247;42.666;23.292;2023-02-02T11:08:49;94223.75;;;12.22;35.32
4469;BME280;2247;42.666;23.292;2023-02-02T11:11:23;94222.72;;;12.18;35.20
4469;BME280;2247;42.666;23.292;2023-02-02T11:13:58;94215.31;;;12.20;35.47
4469;BME280;2247;42.666;23.292;2023-02-02T11:16:31;94203.94;;;12.01;35.31
4469;BME280;2247;42.666;23.292;2023-02-02T11:19:00;94200.28;;;11.97;35.65
4469;BME280;2247;42.666;23.292;2023-02-02T11:21:30;94197.16;;;11.95;35.91
4469;BME280;2247;42.666;23.292;2023-02-02T11:24:00;94205.28;;;11.99;35.70
4469;BME280;2247;42.666;23.292;2023-02-02T11:26:41;94203.66;;;12.03;35.63
4469;BME280;2247;42.666;23.292;2023-02-02T11:29:14;94205.88;;;12.14;35.63
4469;BME280;2247;42.666;23.292;2023-02-02T11:31:43;94192.75;;;12.09;35.52
4469;BME280;2247;42.666;23.292;2023-02-02T11:34:18;94177.47;;;12.06;35.60
4469;BME280;2247;42.666;23.292;2023-02-02T11:37:09;94191.88;;;12.14;35.30
4469;BME280;2247;42.666;23.292;2023-02-02T11:39:38;94172.72;;;12.03;35.29
4469;BME280;2247;42.666;23.292;2023-02-02T11:42:10;94174.09;;;12.19;35.64
4469;BME280;2247;42.666;23.292;2023-02-02T11:44:44;94176.75;;;12.38;35.04
4469;BME280;2247;42.666;23.292;2023-02-02T11:47:24;94165.19;;;12.34;35.50
4469;BME280;2247;42.666;23.292;2023-02-02T11:49:54;94174.31;;;12.42;35.32
4469;BME280;2247;42.666;23.292;2023-02-02T11:52:24;94163.59;;;12.33;35.38
4469;BME280;2247;42.666;23.292;2023-02-02T11:54:53;94178.59;;;12.38;35.17
4469;BME280;2247;42.666;23.292;2023-02-02T11:57:26;94176.47;;;12.40;35.03
4469;BME280;2247;42.666;23.292;2023-02-02T12:00:15;94168.19;;;12.28;35.61
4469;BME280;2247;42.666;23.292;2023-02-02T12:02:46;94164.88;;;12.17;36.23
4469;BME280;2247;42.666;23.292;2023-02-02T12:05:32;94174.47;;;12.32;36.11
4469;BME280;2247;42.666;23.292;2023-02-02T12:07:59;94178.03;;;12.41;35.42
4469;BME280;2247;42.666;23.292;2023-02-02T12:10:35;94149.13;;;12.31;35.03
4469;BME280;2247;42.666;23.292;2023-02-02T12:13:10;94172.31;;;12.34;35.71
4469;BME280;2247;42.666;23.292;2023-02-02T12:15:46;94173.97;;;12.48;36.93
4469;BME280;2247;42.666;23.292;2023-02-02T12:18:37;94169.50;;;12.62;36.13
4469;BME280;2247;42.666;23.292;2023-02-02T12:21:08;94144.75;;;12.40;36.25
4469;BME280;2247;42.666;23.292;2023-02-02T12:23:49;94177.69;;;12.29;37.08
4469;BME280;2247;42.666;23.292;2023-02-02T12:26:21;94166.06;;;12.30;36.43
4469;BME280;2247;42.666;23.292;2023-02-02T12:29:16;94164.06;;;12.21;36.02
4469;BME280;2247;42.666;23.292;2023-02-02T12:32:02;94147.97;;;11.80;34.83
4469;BME280;2247;42.666;23.292;2023-02-02T12:34:43;94182.66;;;11.69;34.80
4469;BME280;2247;42.666;23.292;2023-02-02T12:37:22;94169.06;;;11.57;34.79
4469;BME280;2247;42.666;23.292;2023-02-02T12:40:02;94162.63;;;11.44;34.90
4469;BME280;2247;42.666;23.292;2023-02-02T12:42:42;94174.84;;;11.35;35.40
4469;BME280;2247;42.666;23.292;2023-02-02T12:45:27;94175.78;;;11.20;35.74
4469;BME280;2247;42.666;23.292;2023-02-02T12:48:13;94168.47;;;11.17;36.25
4469;BME280;2247;42.666;23.292;2023-02-02T12:50:56;94174.25;;;11.19;35.90
4469;BME280;2247;42.666;23.292;2023-02-02T12:53:37;94168.84;;;11.29;35.85
4469;BME280;2247;42.666;23.292;2023-02-02T12:56:14;94174.63;;;11.31;36.60
4469;BME280;2247;42.666;23.292;2023-02-02T12:58:52;94165.16;;;11.30;36.56
4469;BME280;2247;42.666;23.292;2023-02-02T13:01:29;94162.44;;;11.35;36.48
4469;BME280;2247;42.666;23.292;2023-02-02T13:04:22;94165.69;;;11.27;36.23
4469;BME280;2247;42.666;23.292;2023-02-02T13:07:31;94163.25;;;11.12;36.66
4469;BME280;2247;42.666;23.292;2023-02-02T13:10:22;94170.63;;;11.10;36.91
4469;BME280;2247;42.666;23.292;2023-02-02T13:12:55;94170.50;;;11.25;36.29
4469;BME280;2247;42.666;23.292;2023-02-02T13:15:31;94173.66;;;11.22;36.89
4469;BME280;2247;42.666;23.292;2023-02-02T13:18:02;94171.88;;;11.18;36.66
4469;BME280;2247;42.666;23.292;2023-02-02T13:20:36;94153.47;;;11.13;36.83
4469;BME280;2247;42.666;23.292;2023-02-02T13:23:14;94171.56;;;11.24;36.99
4469;BME280;2247;42.666;23.292;2023-02-02T13:25:47;94160.09;;;11.58;36.49
4469;BME280;2247;42.666;23.292;2023-02-02T13:28:24;94161.59;;;11.64;35.61
4469;BME280;2247;42.666;23.292;2023-02-02T13:30:57;94165.94;;;11.55;35.80
4469;BME280;2247;42.666;23.292;2023-02-02T13:33:29;94149.22;;;11.40;35.11
4469;BME280;2247;42.666;23.292;2023-02-02T13:36:02;94158.47;;;11.38;35.24
4469;BME280;2247;42.666;23.292;2023-02-02T13:38:32;94179.25;;;11.44;34.78
4469;BME280;2247;42.666;23.292;2023-02-02T13:41:07;94158.19;;;11.39;35.04
4469;BME280;2247;42.666;23.292;2023-02-02T13:43:47;94162.56;;;11.25;35.24
4469;BME280;2247;42.666;23.292;2023-02-02T13:46:26;94163.50;;;11.34;35.25
4469;BME280;2247;42.666;23.292;2023-02-02T13:49:01;94174.78;;;11.16;35.54
4469;BME280;2247;42.666;23.292;2023-02-02T13:51:54;94167.41;;;11.18;36.06
4469;BME280;2247;42.666;23.292;2023-02-02T13:57:45;94165.59;;;11.37;36.39
4469;BME280;2247;42.666;23.292;2023-02-02T14:00:19;94163.91;;;11.23;37.97
4469;BME280;2247;42.666;23.292;2023-02-02T14:02:50;94152.25;;;11.29;38.32
4469;BME280;2247;42.666;23.292;2023-02-02T14:05:23;94175.06;;;11.62;38.99
4469;BME280;2247;42.666;23.292;2023-02-02T14:07:57;94165.25;;;11.68;39.93
4469;BME280;2247;42.666;23.292;2023-02-02T14:10:32;94168.53;;;11.60;40.61
4469;BME280;2247;42.666;23.292;2023-02-02T14:13:14;94145.56;;;11.36;41.88
4469;BME280;2247;42.666;23.292;2023-02-02T14:16:02;94157.69;;;11.37;42.16
4469;BME280;2247;42.666;23.292;2023-02-02T14:18:54;94153.09;;;11.24;42.43
4469;BME280;2247;42.666;23.292;2023-02-02T14:21:59;94157.03;;;11.27;45.21
4469;BME280;2247;42.666;23.292;2023-02-02T14:24:41;94158.31;;;11.29;45.21
4469;BME280;2247;42.666;23.292;2023-02-02T14:27:52;94162.44;;;11.35;44.98
4469;BME280;2247;42.666;23.292;2023-02-02T14:30:29;94173.78;;;11.36;43.44
4469;BME280;2247;42.666;23.292;2023-02-02T14:33:41;94175.56;;;11.17;43.84
4469;BME280;2247;42.666;23.292;2023-02-02T14:36:14;94185.16;;;11.07;44.82
4469;BME280;2247;42.666;23.292;2023-02-02T14:39:08;94184.75;;;10.95;44.57
4469;BME280;2247;42.666;23.292;2023-02-02T14:41:47;94199.41;;;10.78;44.42
4469;BME280;2247;42.666;23.292;2023-02-02T14:45:21;94249.72;;;10.42;47.01